LTCU

Bingöl Çeltiksuyu

Bingöl, Turkey
TAF LTCU 210740Z 2109/2118 VRB02KT 9999 SCT035
Issued Valid From Valid To
Jun-21 @ 07:40 UTC
(2 hours ago)
Jun-21 @ 09:00 UTC
(57 minutes ago)
Jun-21 @ 18:00 UTC
(in 8 hours)
Jun-21 @ 09:00 to Jun-21 @ 18:00
TAF LTCU 210740Z 2109/2118 VRB02KT 9999 SCT035
Wind Visibility Clouds
Variable at 2 knots 10,000+ meters
  • Scattered at 3,500' AGL
TAF LTCU 210740Z 2109/2118 VRB02KT 9999 SCT035
Issued Jun-21 @ 07:40 UTC
(2 hours ago)
Valid From Jun-21 @ 09:00 UTC
(57 minutes ago)
Valid To Jun-21 @ 18:00 UTC
(in 8 hours)
Jun-21 @ 09:00 - Jun-21 @ 18:00
Wind Visibility
Variable at 2 knots 10,000+ meters
Clouds
  • Scattered at 3,500' AGL